메인 페이지
METAR-TAF:

METAR-TAF

공항 :

카노, 나이지리아

위도: 12-03N, 경도: 008-32E, 고도: 476m

현재 날씨관측

예보는 28분 전, 09:00시(UTC)에 발표되었습니다.
남서12kt
온도 32°C
습도 46%
기압 1017 hPa
시정 10km 이상
1500m 미만 상공 구름 및 적란운 없음

METAR: DNKN 020900Z 23012KT CAVOK 32/19 Q1017 NOSIG

시각: 10:28 (09:28 UTC)

예보

예보는 4 시간 28분 전, 05:00시(UTC)에 발표되었습니다.
예보 대상 시간: 02일 06시부터 03일 12시까지 (UTC)
남남서10kt
시정 10km 이상
고도 1500ft 상공 구름 조금
일시적
02일 15시부터 02일 20시까지 (UTC)
고도 1300ft 상공 구름 보통
고도 2100ft 상공 구름 조금, 적란운.
뇌우
전환 중
02일 21시부터 02일 23시까지 (UTC)
시정 10km 이상
1500m 미만 상공 구름 및 적란운 없음

TAF: DNKN 020500Z 0206/0312 21010KT 9999 FEW015 TEMPO 0215/0220 TS SCT013 FEW021CB BECMG 0221/0223 CAVOK

4,000개 이상의 공항 관측 자료 및 예보 (METAR 및 TAF 보고).

지도상에서 검색 가능한 기상관측소가 노란 점과 빨간 점으로 표시되어 있습니다.

기상관측소 명을 보려면 표시 위로 마우스를 이동하세요.

날씨 관측과 예보를 보려면 클릭하세요.

지도 변경 : 확대하려면 엑스 표시가 있는 녹색 버튼, 축소하려면 빼기 표시가 있는 녹색 버튼, 다음 페이지의 지도를 보려면 녹색 화살표를 클릭하세요.


METAR-TAF: